sensor_id;sensor_type;location;lat;lon;timestamp;temperature;humidity
49503;DHT22;35409;48.776;9.204;2022-11-15T00:00:46;7.70;99.90
49503;DHT22;35409;48.776;9.204;2022-11-15T00:03:22;7.80;99.90
49503;DHT22;35409;48.776;9.204;2022-11-15T00:05:48;7.70;99.90
49503;DHT22;35409;48.776;9.204;2022-11-15T00:08:14;7.80;99.90
49503;DHT22;35409;48.776;9.204;2022-11-15T00:10:40;7.90;99.90
49503;DHT22;35409;48.776;9.204;2022-11-15T00:13:11;7.90;99.90
49503;DHT22;35409;48.776;9.204;2022-11-15T00:15:39;7.90;99.90
49503;DHT22;35409;48.776;9.204;2022-11-15T00:18:05;7.90;99.90
49503;DHT22;35409;48.776;9.204;2022-11-15T00:20:33;8.00;99.90
49503;DHT22;35409;48.776;9.204;2022-11-15T00:22:59;8.00;99.90
49503;DHT22;35409;48.776;9.204;2022-11-15T00:25:25;8.00;99.90
49503;DHT22;35409;48.776;9.204;2022-11-15T00:27:53;8.00;99.90
49503;DHT22;35409;48.776;9.204;2022-11-15T00:30:19;8.00;99.90
49503;DHT22;35409;48.776;9.204;2022-11-15T00:32:45;8.00;99.90
49503;DHT22;35409;48.776;9.204;2022-11-15T00:35:11;8.00;99.90
49503;DHT22;35409;48.776;9.204;2022-11-15T00:37:36;8.00;99.90
49503;DHT22;35409;48.776;9.204;2022-11-15T00:40:02;7.90;99.90
49503;DHT22;35409;48.776;9.204;2022-11-15T00:42:27;7.90;99.90
49503;DHT22;35409;48.776;9.204;2022-11-15T00:44:53;8.00;99.90
49503;DHT22;35409;48.776;9.204;2022-11-15T00:47:18;8.00;99.90
49503;DHT22;35409;48.776;9.204;2022-11-15T00:49:44;8.00;99.90
49503;DHT22;35409;48.776;9.204;2022-11-15T00:52:09;7.90;99.90
49503;DHT22;35409;48.776;9.204;2022-11-15T00:54:35;7.90;99.90
49503;DHT22;35409;48.776;9.204;2022-11-15T00:57:01;7.90;99.90
49503;DHT22;35409;48.776;9.204;2022-11-15T00:59:26;7.80;99.90
49503;DHT22;35409;48.776;9.204;2022-11-15T01:01:52;7.80;99.90
49503;DHT22;35409;48.776;9.204;2022-11-15T01:04:17;7.70;99.90
49503;DHT22;35409;48.776;9.204;2022-11-15T01:06:43;7.70;99.90
49503;DHT22;35409;48.776;9.204;2022-11-15T01:09:09;7.70;99.90
49503;DHT22;35409;48.776;9.204;2022-11-15T01:11:34;7.60;99.90
49503;DHT22;35409;48.776;9.204;2022-11-15T01:14:00;7.60;99.90
49503;DHT22;35409;48.776;9.204;2022-11-15T01:16:25;7.60;99.90
49503;DHT22;35409;48.776;9.204;2022-11-15T01:18:51;7.50;99.90
49503;DHT22;35409;48.776;9.204;2022-11-15T01:21:18;7.50;99.90
49503;DHT22;35409;48.776;9.204;2022-11-15T01:23:44;7.40;99.90
49503;DHT22;35409;48.776;9.204;2022-11-15T01:26:12;7.30;99.90
49503;DHT22;35409;48.776;9.204;2022-11-15T01:28:40;7.30;99.90
49503;DHT22;35409;48.776;9.204;2022-11-15T01:31:11;7.20;99.90
49503;DHT22;35409;48.776;9.204;2022-11-15T01:33:38;7.20;99.90
49503;DHT22;35409;48.776;9.204;2022-11-15T01:36:09;7.10;99.90
49503;DHT22;35409;48.776;9.204;2022-11-15T01:38:35;7.00;99.90
49503;DHT22;35409;48.776;9.204;2022-11-15T01:41:01;6.90;99.90
49503;DHT22;35409;48.776;9.204;2022-11-15T01:43:32;6.80;99.90
49503;DHT22;35409;48.776;9.204;2022-11-15T01:48:33;6.70;99.90
49503;DHT22;35409;48.776;9.204;2022-11-15T01:51:02;6.70;99.90
49503;DHT22;35409;48.776;9.204;2022-11-15T01:53:29;6.70;99.90
49503;DHT22;35409;48.776;9.204;2022-11-15T01:55:57;6.70;99.90
49503;DHT22;35409;48.776;9.204;2022-11-15T01:58:23;6.70;99.90
49503;DHT22;35409;48.776;9.204;2022-11-15T02:00:50;6.70;99.90
49503;DHT22;35409;48.776;9.204;2022-11-15T02:03:16;6.60;99.90
49503;DHT22;35409;48.776;9.204;2022-11-15T02:05:42;6.60;99.90
49503;DHT22;35409;48.776;9.204;2022-11-15T02:08:09;6.60;99.90
49503;DHT22;35409;48.776;9.204;2022-11-15T02:10:47;6.60;99.90
49503;DHT22;35409;48.776;9.204;2022-11-15T02:13:14;6.70;99.90
49503;DHT22;35409;48.776;9.204;2022-11-15T02:15:59;6.80;99.90
49503;DHT22;35409;48.776;9.204;2022-11-15T02:18:35;6.90;99.90
49503;DHT22;35409;48.776;9.204;2022-11-15T02:24:08;7.00;99.90
49503;DHT22;35409;48.776;9.204;2022-11-15T02:37:21;7.10;99.90
49503;DHT22;35409;48.776;9.204;2022-11-15T02:42:43;7.10;99.90
49503;DHT22;35409;48.776;9.204;2022-11-15T02:45:31;7.10;99.90
49503;DHT22;35409;48.776;9.204;2022-11-15T02:47:59;7.00;99.90
49503;DHT22;35409;48.776;9.204;2022-11-15T02:50:29;7.00;99.90
49503;DHT22;35409;48.776;9.204;2022-11-15T02:52:55;6.90;99.90
49503;DHT22;35409;48.776;9.204;2022-11-15T02:55:38;6.90;99.90
49503;DHT22;35409;48.776;9.204;2022-11-15T02:58:32;6.80;99.90
49503;DHT22;35409;48.776;9.204;2022-11-15T03:04:10;6.80;99.90
49503;DHT22;35409;48.776;9.204;2022-11-15T03:07:00;6.80;99.90
49503;DHT22;35409;48.776;9.204;2022-11-15T03:09:49;6.70;99.90
49503;DHT22;35409;48.776;9.204;2022-11-15T03:14:59;6.70;99.90
49503;DHT22;35409;48.776;9.204;2022-11-15T03:17:33;6.60;99.90
49503;DHT22;35409;48.776;9.204;2022-11-15T03:20:05;6.60;99.90
49503;DHT22;35409;48.776;9.204;2022-11-15T03:22:35;6.50;99.90
49503;DHT22;35409;48.776;9.204;2022-11-15T03:25:05;6.50;99.90
49503;DHT22;35409;48.776;9.204;2022-11-15T03:27:36;6.40;99.90
49503;DHT22;35409;48.776;9.204;2022-11-15T03:30:06;6.40;99.90
49503;DHT22;35409;48.776;9.204;2022-11-15T03:32:36;6.30;99.90
49503;DHT22;35409;48.776;9.204;2022-11-15T03:35:12;6.30;99.90
49503;DHT22;35409;48.776;9.204;2022-11-15T03:37:44;6.20;99.90
49503;DHT22;35409;48.776;9.204;2022-11-15T03:40:11;6.30;99.90
49503;DHT22;35409;48.776;9.204;2022-11-15T03:42:57;6.30;99.90
49503;DHT22;35409;48.776;9.204;2022-11-15T03:45:54;6.30;99.90
49503;DHT22;35409;48.776;9.204;2022-11-15T03:48:24;6.30;99.90
49503;DHT22;35409;48.776;9.204;2022-11-15T03:50:50;6.30;99.90
49503;DHT22;35409;48.776;9.204;2022-11-15T03:53:16;6.30;99.90
49503;DHT22;35409;48.776;9.204;2022-11-15T03:55:42;6.30;99.90
49503;DHT22;35409;48.776;9.204;2022-11-15T03:58:08;6.30;99.90
49503;DHT22;35409;48.776;9.204;2022-11-15T04:00:33;6.30;99.90
49503;DHT22;35409;48.776;9.204;2022-11-15T04:02:59;6.30;99.90
49503;DHT22;35409;48.776;9.204;2022-11-15T04:05:25;6.30;99.90
49503;DHT22;35409;48.776;9.204;2022-11-15T04:07:50;6.40;99.90
49503;DHT22;35409;48.776;9.204;2022-11-15T04:10:16;6.40;99.90
49503;DHT22;35409;48.776;9.204;2022-11-15T04:12:44;6.40;99.90
49503;DHT22;35409;48.776;9.204;2022-11-15T04:15:17;6.40;99.90
49503;DHT22;35409;48.776;9.204;2022-11-15T04:17:44;6.50;99.90
49503;DHT22;35409;48.776;9.204;2022-11-15T04:20:13;6.50;99.90
49503;DHT22;35409;48.776;9.204;2022-11-15T04:22:58;6.50;99.90
49503;DHT22;35409;48.776;9.204;2022-11-15T04:25:44;6.50;99.90
49503;DHT22;35409;48.776;9.204;2022-11-15T04:28:10;6.40;99.90
49503;DHT22;35409;48.776;9.204;2022-11-15T04:30:37;6.40;99.90
49503;DHT22;35409;48.776;9.204;2022-11-15T04:33:03;6.40;99.90
49503;DHT22;35409;48.776;9.204;2022-11-15T04:35:29;6.40;99.90
49503;DHT22;35409;48.776;9.204;2022-11-15T04:37:56;6.50;99.90
49503;DHT22;35409;48.776;9.204;2022-11-15T04:40:22;6.50;99.90
49503;DHT22;35409;48.776;9.204;2022-11-15T04:42:47;6.50;99.90
49503;DHT22;35409;48.776;9.204;2022-11-15T04:45:13;6.50;99.90
49503;DHT22;35409;48.776;9.204;2022-11-15T04:47:39;6.50;99.90
49503;DHT22;35409;48.776;9.204;2022-11-15T04:50:05;6.50;99.90
49503;DHT22;35409;48.776;9.204;2022-11-15T04:52:30;6.50;99.90
49503;DHT22;35409;48.776;9.204;2022-11-15T04:54:56;6.50;99.90
49503;DHT22;35409;48.776;9.204;2022-11-15T04:57:22;6.40;99.90
49503;DHT22;35409;48.776;9.204;2022-11-15T04:59:47;6.40;99.90
49503;DHT22;35409;48.776;9.204;2022-11-15T05:02:13;6.30;99.90
49503;DHT22;35409;48.776;9.204;2022-11-15T05:04:39;6.30;99.90
49503;DHT22;35409;48.776;9.204;2022-11-15T05:07:05;6.30;99.90
49503;DHT22;35409;48.776;9.204;2022-11-15T05:09:30;6.20;99.90
49503;DHT22;35409;48.776;9.204;2022-11-15T05:11:56;6.20;99.90
49503;DHT22;35409;48.776;9.204;2022-11-15T05:14:21;6.20;99.90
49503;DHT22;35409;48.776;9.204;2022-11-15T05:16:47;6.20;99.90
49503;DHT22;35409;48.776;9.204;2022-11-15T05:19:13;6.20;99.90
49503;DHT22;35409;48.776;9.204;2022-11-15T05:21:39;6.30;99.90
49503;DHT22;35409;48.776;9.204;2022-11-15T05:24:04;6.30;99.90
49503;DHT22;35409;48.776;9.204;2022-11-15T05:26:30;6.40;99.90
49503;DHT22;35409;48.776;9.204;2022-11-15T05:28:58;6.30;99.90
49503;DHT22;35409;48.776;9.204;2022-11-15T05:31:24;6.30;99.90
49503;DHT22;35409;48.776;9.204;2022-11-15T05:33:51;6.20;99.90
49503;DHT22;35409;48.776;9.204;2022-11-15T05:36:38;6.20;99.90
49503;DHT22;35409;48.776;9.204;2022-11-15T05:39:06;6.10;99.90
49503;DHT22;35409;48.776;9.204;2022-11-15T05:41:36;6.10;99.90
49503;DHT22;35409;48.776;9.204;2022-11-15T05:44:03;6.10;99.90
49503;DHT22;35409;48.776;9.204;2022-11-15T05:46:30;6.00;99.90
49503;DHT22;35409;48.776;9.204;2022-11-15T05:48:57;6.00;99.90
49503;DHT22;35409;48.776;9.204;2022-11-15T05:51:23;6.00;99.90
49503;DHT22;35409;48.776;9.204;2022-11-15T05:53:50;6.00;99.90
49503;DHT22;35409;48.776;9.204;2022-11-15T05:56:17;6.00;99.90
49503;DHT22;35409;48.776;9.204;2022-11-15T05:58:43;6.10;99.90
49503;DHT22;35409;48.776;9.204;2022-11-15T06:01:08;6.10;99.90
49503;DHT22;35409;48.776;9.204;2022-11-15T06:03:34;6.20;99.90
49503;DHT22;35409;48.776;9.204;2022-11-15T06:06:00;6.20;99.90
49503;DHT22;35409;48.776;9.204;2022-11-15T06:08:25;6.30;99.90
49503;DHT22;35409;48.776;9.204;2022-11-15T06:10:51;6.30;99.90
49503;DHT22;35409;48.776;9.204;2022-11-15T06:13:16;6.40;99.90
49503;DHT22;35409;48.776;9.204;2022-11-15T06:15:42;6.40;99.90
49503;DHT22;35409;48.776;9.204;2022-11-15T06:18:07;6.40;99.90
49503;DHT22;35409;48.776;9.204;2022-11-15T06:20:33;6.40;99.90
49503;DHT22;35409;48.776;9.204;2022-11-15T06:23:04;6.40;99.90
49503;DHT22;35409;48.776;9.204;2022-11-15T06:25:30;6.40;99.90
49503;DHT22;35409;48.776;9.204;2022-11-15T06:27:57;6.50;99.90
49503;DHT22;35409;48.776;9.204;2022-11-15T06:30:24;6.60;99.90
49503;DHT22;35409;48.776;9.204;2022-11-15T06:32:50;6.80;99.90
49503;DHT22;35409;48.776;9.204;2022-11-15T06:35:16;7.00;99.90
49503;DHT22;35409;48.776;9.204;2022-11-15T06:37:42;7.10;99.90
49503;DHT22;35409;48.776;9.204;2022-11-15T06:40:09;7.30;99.90
49503;DHT22;35409;48.776;9.204;2022-11-15T06:42:35;7.40;99.90
49503;DHT22;35409;48.776;9.204;2022-11-15T06:45:01;7.50;99.90
49503;DHT22;35409;48.776;9.204;2022-11-15T06:47:26;7.60;99.90
49503;DHT22;35409;48.776;9.204;2022-11-15T06:49:52;7.60;99.90
49503;DHT22;35409;48.776;9.204;2022-11-15T06:52:18;7.70;99.90
49503;DHT22;35409;48.776;9.204;2022-11-15T06:54:45;7.60;99.90
49503;DHT22;35409;48.776;9.204;2022-11-15T06:57:10;7.60;99.90
49503;DHT22;35409;48.776;9.204;2022-11-15T06:59:36;7.60;99.90
49503;DHT22;35409;48.776;9.204;2022-11-15T07:02:02;7.60;99.90
49503;DHT22;35409;48.776;9.204;2022-11-15T07:04:28;7.60;99.90
49503;DHT22;35409;48.776;9.204;2022-11-15T07:06:53;7.60;99.90
49503;DHT22;35409;48.776;9.204;2022-11-15T07:09:19;7.60;99.90
49503;DHT22;35409;48.776;9.204;2022-11-15T07:11:44;7.70;99.90
49503;DHT22;35409;48.776;9.204;2022-11-15T07:14:10;7.80;99.90
49503;DHT22;35409;48.776;9.204;2022-11-15T07:16:36;7.90;99.90
49503;DHT22;35409;48.776;9.204;2022-11-15T07:19:02;7.90;99.90
49503;DHT22;35409;48.776;9.204;2022-11-15T07:21:28;8.00;99.90
49503;DHT22;35409;48.776;9.204;2022-11-15T07:23:53;8.10;99.90
49503;DHT22;35409;48.776;9.204;2022-11-15T07:26:19;8.10;99.90
49503;DHT22;35409;48.776;9.204;2022-11-15T07:28:45;8.20;99.90
49503;DHT22;35409;48.776;9.204;2022-11-15T07:31:11;8.20;99.90
49503;DHT22;35409;48.776;9.204;2022-11-15T07:33:36;8.30;99.90
49503;DHT22;35409;48.776;9.204;2022-11-15T07:36:04;8.40;99.90
49503;DHT22;35409;48.776;9.204;2022-11-15T07:38:30;8.50;99.90
49503;DHT22;35409;48.776;9.204;2022-11-15T07:41:01;8.60;99.90
49503;DHT22;35409;48.776;9.204;2022-11-15T07:43:27;8.80;99.90
49503;DHT22;35409;48.776;9.204;2022-11-15T07:45:53;8.80;99.90
49503;DHT22;35409;48.776;9.204;2022-11-15T07:48:19;8.80;99.90
49503;DHT22;35409;48.776;9.204;2022-11-15T07:50:45;8.90;99.90
49503;DHT22;35409;48.776;9.204;2022-11-15T07:53:11;9.00;99.90
49503;DHT22;35409;48.776;9.204;2022-11-15T07:55:37;9.10;99.90
49503;DHT22;35409;48.776;9.204;2022-11-15T07:58:07;9.20;99.90
49503;DHT22;35409;48.776;9.204;2022-11-15T08:00:34;9.20;99.90
49503;DHT22;35409;48.776;9.204;2022-11-15T08:03:11;9.30;99.90
49503;DHT22;35409;48.776;9.204;2022-11-15T08:05:38;9.40;99.90
49503;DHT22;35409;48.776;9.204;2022-11-15T08:08:05;9.50;99.90
49503;DHT22;35409;48.776;9.204;2022-11-15T08:10:31;9.60;99.90
49503;DHT22;35409;48.776;9.204;2022-11-15T08:13:01;9.80;99.90
49503;DHT22;35409;48.776;9.204;2022-11-15T08:15:27;9.90;99.90
49503;DHT22;35409;48.776;9.204;2022-11-15T08:17:57;10.00;99.90
49503;DHT22;35409;48.776;9.204;2022-11-15T08:20:24;10.10;99.90
49503;DHT22;35409;48.776;9.204;2022-11-15T08:22:50;10.10;99.90
49503;DHT22;35409;48.776;9.204;2022-11-15T08:25:16;10.10;99.90
49503;DHT22;35409;48.776;9.204;2022-11-15T08:27:41;10.20;99.90
49503;DHT22;35409;48.776;9.204;2022-11-15T08:30:07;10.20;99.90
49503;DHT22;35409;48.776;9.204;2022-11-15T08:32:33;10.20;99.90
49503;DHT22;35409;48.776;9.204;2022-11-15T08:34:59;10.20;99.90
49503;DHT22;35409;48.776;9.204;2022-11-15T08:37:24;10.20;99.90
49503;DHT22;35409;48.776;9.204;2022-11-15T08:39:50;10.20;99.90
49503;DHT22;35409;48.776;9.204;2022-11-15T08:42:16;10.20;99.90
49503;DHT22;35409;48.776;9.204;2022-11-15T08:44:42;10.30;99.90
49503;DHT22;35409;48.776;9.204;2022-11-15T08:47:11;10.30;99.90
49503;DHT22;35409;48.776;9.204;2022-11-15T08:49:36;10.30;99.90
49503;DHT22;35409;48.776;9.204;2022-11-15T08:52:02;10.30;99.90
49503;DHT22;35409;48.776;9.204;2022-11-15T08:54:28;10.30;99.90
49503;DHT22;35409;48.776;9.204;2022-11-15T08:56:53;10.30;99.90
49503;DHT22;35409;48.776;9.204;2022-11-15T08:59:19;10.40;99.90
49503;DHT22;35409;48.776;9.204;2022-11-15T09:01:44;10.40;99.90
49503;DHT22;35409;48.776;9.204;2022-11-15T09:04:10;10.50;99.90
49503;DHT22;35409;48.776;9.204;2022-11-15T09:06:35;10.60;99.90
49503;DHT22;35409;48.776;9.204;2022-11-15T09:09:02;10.80;99.90
49503;DHT22;35409;48.776;9.204;2022-11-15T09:11:28;11.00;99.90
49503;DHT22;35409;48.776;9.204;2022-11-15T09:13:54;11.20;99.90
49503;DHT22;35409;48.776;9.204;2022-11-15T09:16:20;11.50;99.90
49503;DHT22;35409;48.776;9.204;2022-11-15T09:18:46;11.60;99.90
49503;DHT22;35409;48.776;9.204;2022-11-15T09:21:12;11.80;99.90
49503;DHT22;35409;48.776;9.204;2022-11-15T09:23:38;11.90;99.90
49503;DHT22;35409;48.776;9.204;2022-11-15T09:26:04;12.00;99.90
49503;DHT22;35409;48.776;9.204;2022-11-15T09:28:31;12.20;99.90
49503;DHT22;35409;48.776;9.204;2022-11-15T09:30:58;12.30;99.90
49503;DHT22;35409;48.776;9.204;2022-11-15T09:33:24;12.40;99.90
49503;DHT22;35409;48.776;9.204;2022-11-15T09:35:50;12.60;99.90
49503;DHT22;35409;48.776;9.204;2022-11-15T09:38:15;12.70;99.90
49503;DHT22;35409;48.776;9.204;2022-11-15T09:40:41;12.80;99.90
49503;DHT22;35409;48.776;9.204;2022-11-15T09:48:45;13.20;99.90
49503;DHT22;35409;48.776;9.204;2022-11-15T09:51:41;13.20;99.90
49503;DHT22;35409;48.776;9.204;2022-11-15T09:54:34;13.30;99.90
49503;DHT22;35409;48.776;9.204;2022-11-15T10:02:43;13.70;99.90
49503;DHT22;35409;48.776;9.204;2022-11-15T10:05:16;13.80;99.90
49503;DHT22;35409;48.776;9.204;2022-11-15T10:08:01;13.90;99.90
49503;DHT22;35409;48.776;9.204;2022-11-15T10:10:35;14.00;99.90
49503;DHT22;35409;48.776;9.204;2022-11-15T10:13:03;14.10;99.90
49503;DHT22;35409;48.776;9.204;2022-11-15T10:15:29;14.20;99.90
49503;DHT22;35409;48.776;9.204;2022-11-15T10:21:15;14.20;99.90
49503;DHT22;35409;48.776;9.204;2022-11-15T10:23:38;14.20;99.90
49503;DHT22;35409;48.776;9.204;2022-11-15T10:26:08;14.20;99.90
49503;DHT22;35409;48.776;9.204;2022-11-15T10:28:35;14.20;99.90
49503;DHT22;35409;48.776;9.204;2022-11-15T10:31:01;14.20;99.90
49503;DHT22;35409;48.776;9.204;2022-11-15T10:33:31;14.20;99.90
49503;DHT22;35409;48.776;9.204;2022-11-15T10:41:27;14.20;99.90
49503;DHT22;35409;48.776;9.204;2022-11-15T10:46:34;14.10;99.90
49503;DHT22;35409;48.776;9.204;2022-11-15T10:49:17;14.10;99.90
49503;DHT22;35409;48.776;9.204;2022-11-15T10:51:48;14.10;99.90
49503;DHT22;35409;48.776;9.204;2022-11-15T10:54:25;14.20;99.90
49503;DHT22;35409;48.776;9.204;2022-11-15T10:56:56;14.20;99.90
49503;DHT22;35409;48.776;9.204;2022-11-15T10:59:32;14.30;99.90
49503;DHT22;35409;48.776;9.204;2022-11-15T11:01:59;14.40;99.90
49503;DHT22;35409;48.776;9.204;2022-11-15T11:04:25;14.40;99.90
49503;DHT22;35409;48.776;9.204;2022-11-15T11:07:00;14.40;99.90
49503;DHT22;35409;48.776;9.204;2022-11-15T11:09:34;14.40;99.90
49503;DHT22;35409;48.776;9.204;2022-11-15T11:12:02;14.40;99.90
49503;DHT22;35409;48.776;9.204;2022-11-15T11:14:30;14.30;99.90
49503;DHT22;35409;48.776;9.204;2022-11-15T11:19:43;14.10;99.90
49503;DHT22;35409;48.776;9.204;2022-11-15T11:22:22;14.10;99.90
49503;DHT22;35409;48.776;9.204;2022-11-15T11:28:14;14.10;99.90
49503;DHT22;35409;48.776;9.204;2022-11-15T11:31:08;14.10;99.90
49503;DHT22;35409;48.776;9.204;2022-11-15T11:33:42;14.10;99.90
49503;DHT22;35409;48.776;9.204;2022-11-15T11:36:27;14.20;99.90
49503;DHT22;35409;48.776;9.204;2022-11-15T11:39:14;14.30;99.90
49503;DHT22;35409;48.776;9.204;2022-11-15T11:42:02;14.40;99.90
49503;DHT22;35409;48.776;9.204;2022-11-15T11:45:02;14.50;99.90
49503;DHT22;35409;48.776;9.204;2022-11-15T11:47:33;14.60;99.90
49503;DHT22;35409;48.776;9.204;2022-11-15T11:50:10;14.60;99.90
49503;DHT22;35409;48.776;9.204;2022-11-15T11:53:08;14.70;99.90
49503;DHT22;35409;48.776;9.204;2022-11-15T11:55:39;14.80;99.90
49503;DHT22;35409;48.776;9.204;2022-11-15T11:58:34;14.80;99.90
49503;DHT22;35409;48.776;9.204;2022-11-15T12:03:45;14.90;99.90
49503;DHT22;35409;48.776;9.204;2022-11-15T12:06:27;14.90;99.90
49503;DHT22;35409;48.776;9.204;2022-11-15T12:11:37;14.90;99.90
49503;DHT22;35409;48.776;9.204;2022-11-15T12:14:12;14.90;99.90
49503;DHT22;35409;48.776;9.204;2022-11-15T12:16:42;14.90;99.90
49503;DHT22;35409;48.776;9.204;2022-11-15T12:19:08;15.00;99.90
49503;DHT22;35409;48.776;9.204;2022-11-15T12:24:03;15.10;99.90
49503;DHT22;35409;48.776;9.204;2022-11-15T12:26:41;15.10;99.90
49503;DHT22;35409;48.776;9.204;2022-11-15T12:31:55;15.20;99.90
49503;DHT22;35409;48.776;9.204;2022-11-15T12:36:54;15.20;99.90
49503;DHT22;35409;48.776;9.204;2022-11-15T12:39:20;15.20;99.90
49503;DHT22;35409;48.776;9.204;2022-11-15T13:02:45;14.90;99.90
49503;DHT22;35409;48.776;9.204;2022-11-15T13:17:45;14.60;99.90
49503;DHT22;35409;48.776;9.204;2022-11-15T13:33:17;14.30;99.90
49503;DHT22;35409;48.776;9.204;2022-11-15T13:35:47;14.20;99.90
49503;DHT22;35409;48.776;9.204;2022-11-15T13:38:28;14.20;99.90
49503;DHT22;35409;48.776;9.204;2022-11-15T13:40:54;14.20;99.90
49503;DHT22;35409;48.776;9.204;2022-11-15T13:46:18;14.20;99.90
49503;DHT22;35409;48.776;9.204;2022-11-15T13:48:46;14.20;99.90
49503;DHT22;35409;48.776;9.204;2022-11-15T13:56:52;14.10;99.90
49503;DHT22;35409;48.776;9.204;2022-11-15T13:59:35;14.10;99.90
49503;DHT22;35409;48.776;9.204;2022-11-15T14:02:11;14.00;99.90
49503;DHT22;35409;48.776;9.204;2022-11-15T14:04:44;14.00;99.90
49503;DHT22;35409;48.776;9.204;2022-11-15T14:07:19;13.90;99.90
49503;DHT22;35409;48.776;9.204;2022-11-15T14:09:45;13.70;99.90
49503;DHT22;35409;48.776;9.204;2022-11-15T14:12:29;13.70;99.90
49503;DHT22;35409;48.776;9.204;2022-11-15T14:14:56;13.50;99.90
49503;DHT22;35409;48.776;9.204;2022-11-15T14:19:55;13.30;99.90
49503;DHT22;35409;48.776;9.204;2022-11-15T14:22:23;13.20;99.90
49503;DHT22;35409;48.776;9.204;2022-11-15T14:25:14;13.10;99.90
49503;DHT22;35409;48.776;9.204;2022-11-15T14:27:42;13.10;99.90
49503;DHT22;35409;48.776;9.204;2022-11-15T14:30:15;13.00;99.90
49503;DHT22;35409;48.776;9.204;2022-11-15T14:32:49;12.90;99.90
49503;DHT22;35409;48.776;9.204;2022-11-15T14:35:20;12.90;99.90
49503;DHT22;35409;48.776;9.204;2022-11-15T14:37:46;12.80;99.90
49503;DHT22;35409;48.776;9.204;2022-11-15T14:40:14;12.80;99.90
49503;DHT22;35409;48.776;9.204;2022-11-15T14:42:41;12.70;99.90
49503;DHT22;35409;48.776;9.204;2022-11-15T14:45:21;12.70;99.90
49503;DHT22;35409;48.776;9.204;2022-11-15T14:47:47;12.70;99.90
49503;DHT22;35409;48.776;9.204;2022-11-15T14:50:13;12.70;99.90
49503;DHT22;35409;48.776;9.204;2022-11-15T14:52:39;12.60;99.90
49503;DHT22;35409;48.776;9.204;2022-11-15T14:55:18;12.60;99.90
49503;DHT22;35409;48.776;9.204;2022-11-15T14:57:44;12.60;99.90
49503;DHT22;35409;48.776;9.204;2022-11-15T15:00:11;12.60;99.90
49503;DHT22;35409;48.776;9.204;2022-11-15T15:02:37;12.60;99.90
49503;DHT22;35409;48.776;9.204;2022-11-15T15:05:17;12.60;99.90
49503;DHT22;35409;48.776;9.204;2022-11-15T15:07:43;12.60;99.90
49503;DHT22;35409;48.776;9.204;2022-11-15T15:10:09;12.50;99.90
49503;DHT22;35409;48.776;9.204;2022-11-15T15:12:35;12.50;99.90
49503;DHT22;35409;48.776;9.204;2022-11-15T15:15:00;12.50;99.90
49503;DHT22;35409;48.776;9.204;2022-11-15T15:17:26;12.50;99.90
49503;DHT22;35409;48.776;9.204;2022-11-15T15:19:52;12.40;99.90
49503;DHT22;35409;48.776;9.204;2022-11-15T15:22:19;12.40;99.90
49503;DHT22;35409;48.776;9.204;2022-11-15T15:24:47;12.40;99.90
49503;DHT22;35409;48.776;9.204;2022-11-15T15:27:13;12.40;99.90
49503;DHT22;35409;48.776;9.204;2022-11-15T15:29:39;12.40;99.90
49503;DHT22;35409;48.776;9.204;2022-11-15T15:32:05;12.50;99.90
49503;DHT22;35409;48.776;9.204;2022-11-15T15:34:32;12.50;99.90
49503;DHT22;35409;48.776;9.204;2022-11-15T15:37:25;12.50;99.90
49503;DHT22;35409;48.776;9.204;2022-11-15T15:39:52;12.50;99.90
49503;DHT22;35409;48.776;9.204;2022-11-15T15:42:19;12.50;99.90
49503;DHT22;35409;48.776;9.204;2022-11-15T15:44:45;12.50;99.90
49503;DHT22;35409;48.776;9.204;2022-11-15T15:47:13;12.50;99.90
49503;DHT22;35409;48.776;9.204;2022-11-15T15:49:40;12.40;99.90
49503;DHT22;35409;48.776;9.204;2022-11-15T15:52:06;12.40;99.90
49503;DHT22;35409;48.776;9.204;2022-11-15T15:54:32;12.50;99.90
49503;DHT22;35409;48.776;9.204;2022-11-15T15:56:57;12.50;99.90
49503;DHT22;35409;48.776;9.204;2022-11-15T15:59:23;12.50;99.90
49503;DHT22;35409;48.776;9.204;2022-11-15T16:01:48;12.50;99.90
49503;DHT22;35409;48.776;9.204;2022-11-15T16:04:14;12.50;99.90
49503;DHT22;35409;48.776;9.204;2022-11-15T16:06:40;12.50;99.90
49503;DHT22;35409;48.776;9.204;2022-11-15T16:09:13;12.50;99.90
49503;DHT22;35409;48.776;9.204;2022-11-15T16:11:38;12.40;99.90
49503;DHT22;35409;48.776;9.204;2022-11-15T16:14:04;12.40;99.90
49503;DHT22;35409;48.776;9.204;2022-11-15T16:16:30;12.40;99.90
49503;DHT22;35409;48.776;9.204;2022-11-15T16:18:55;12.40;99.90
49503;DHT22;35409;48.776;9.204;2022-11-15T16:21:21;12.40;99.90
49503;DHT22;35409;48.776;9.204;2022-11-15T16:23:46;12.40;99.90
49503;DHT22;35409;48.776;9.204;2022-11-15T16:26:26;12.40;99.90
49503;DHT22;35409;48.776;9.204;2022-11-15T16:28:52;12.40;99.90
49503;DHT22;35409;48.776;9.204;2022-11-15T16:31:18;12.40;99.90
49503;DHT22;35409;48.776;9.204;2022-11-15T16:33:47;12.40;99.90
49503;DHT22;35409;48.776;9.204;2022-11-15T16:36:26;12.40;99.90
49503;DHT22;35409;48.776;9.204;2022-11-15T16:38:52;12.40;99.90
49503;DHT22;35409;48.776;9.204;2022-11-15T16:41:18;12.50;99.90
49503;DHT22;35409;48.776;9.204;2022-11-15T16:43:47;12.40;99.90
49503;DHT22;35409;48.776;9.204;2022-11-15T16:46:24;12.40;99.90
49503;DHT22;35409;48.776;9.204;2022-11-15T16:48:50;12.40;99.90
49503;DHT22;35409;48.776;9.204;2022-11-15T16:51:16;12.40;99.90
49503;DHT22;35409;48.776;9.204;2022-11-15T16:53:42;12.40;99.90
49503;DHT22;35409;48.776;9.204;2022-11-15T16:58:46;12.40;99.90
49503;DHT22;35409;48.776;9.204;2022-11-15T17:01:23;12.40;99.90
49503;DHT22;35409;48.776;9.204;2022-11-15T17:03:49;12.30;99.90
49503;DHT22;35409;48.776;9.204;2022-11-15T17:06:15;12.40;99.90
49503;DHT22;35409;48.776;9.204;2022-11-15T17:08:42;12.40;99.90
49503;DHT22;35409;48.776;9.204;2022-11-15T17:11:09;12.40;99.90
49503;DHT22;35409;48.776;9.204;2022-11-15T17:13:36;12.40;99.90
49503;DHT22;35409;48.776;9.204;2022-11-15T17:16:06;12.40;99.90
49503;DHT22;35409;48.776;9.204;2022-11-15T17:18:33;12.40;99.90
49503;DHT22;35409;48.776;9.204;2022-11-15T17:21:06;12.40;99.90
49503;DHT22;35409;48.776;9.204;2022-11-15T17:23:32;12.40;99.90
49503;DHT22;35409;48.776;9.204;2022-11-15T17:26:03;12.40;99.90
49503;DHT22;35409;48.776;9.204;2022-11-15T17:28:33;12.40;99.90
49503;DHT22;35409;48.776;9.204;2022-11-15T17:30:59;12.40;99.90
49503;DHT22;35409;48.776;9.204;2022-11-15T17:33:25;12.50;99.90
49503;DHT22;35409;48.776;9.204;2022-11-15T17:35:59;12.50;99.90
49503;DHT22;35409;48.776;9.204;2022-11-15T17:38:25;12.50;99.90
49503;DHT22;35409;48.776;9.204;2022-11-15T17:43:27;12.60;99.90
49503;DHT22;35409;48.776;9.204;2022-11-15T17:45:52;12.50;99.90
49503;DHT22;35409;48.776;9.204;2022-11-15T17:48:18;12.50;99.90
49503;DHT22;35409;48.776;9.204;2022-11-15T17:50:58;12.50;99.90
49503;DHT22;35409;48.776;9.204;2022-11-15T17:53:24;12.60;99.90
49503;DHT22;35409;48.776;9.204;2022-11-15T17:55:50;12.60;99.90
49503;DHT22;35409;48.776;9.204;2022-11-15T17:58:16;12.50;99.90